createdAt,value
2023-05-24T00:02:14.235Z,123.72
2023-05-24T00:04:42.444Z,125.75
2023-05-24T00:07:09.626Z,115.18
2023-05-24T00:09:36.669Z,130.02
2023-05-24T00:12:03.999Z,135.32
2023-05-24T00:14:30.993Z,87.88
2023-05-24T00:16:58.639Z,147.60
2023-05-24T00:19:25.901Z,166.10
2023-05-24T00:21:53.240Z,145.00
2023-05-24T00:24:20.788Z,136.80
2023-05-24T00:26:48.602Z,162.55
2023-05-24T00:29:15.820Z,198.25
2023-05-24T00:31:42.925Z,239.18
2023-05-24T00:34:10.382Z,140.07
2023-05-24T00:36:38.359Z,138.48
2023-05-24T00:39:05.930Z,137.57
2023-05-24T00:41:33.614Z,216.23
2023-05-24T00:44:00.716Z,235.80
2023-05-24T00:46:33.627Z,235.52
2023-05-24T00:49:01.685Z,233.07
2023-05-24T00:51:28.873Z,240.98
2023-05-24T00:53:56.546Z,233.23
2023-05-24T00:56:24.166Z,239.35
2023-05-24T00:58:54.855Z,237.40
2023-05-24T01:01:26.403Z,239.55
2023-05-24T01:03:54.448Z,238.50
2023-05-24T01:06:23.519Z,235.38
2023-05-24T01:08:59.388Z,238.88
2023-05-24T01:11:56.662Z,235.65
2023-05-24T01:14:37.382Z,243.55
2023-05-24T01:17:21.419Z,234.30
2023-05-24T01:20:00.086Z,233.93
2023-05-24T01:22:51.281Z,237.95
2023-05-24T01:25:45.397Z,234.57
2023-05-24T01:28:13.396Z,238.13
2023-05-24T01:30:44.395Z,243.50
2023-05-24T01:33:12.040Z,237.20
2023-05-24T01:35:42.599Z,239.50
2023-05-24T01:38:12.175Z,238.88
2023-05-24T01:40:40.616Z,233.75
2023-05-24T01:43:53.662Z,241.32
2023-05-24T01:46:37.914Z,239.05
2023-05-24T01:49:13.954Z,236.60
2023-05-24T01:52:18.794Z,235.55
2023-05-24T01:54:50.517Z,233.55
2023-05-24T01:57:21.364Z,234.70
2023-05-24T01:59:49.936Z,239.38
2023-05-24T02:02:17.375Z,235.63
2023-05-24T02:04:44.421Z,236.02
2023-05-24T02:07:11.486Z,232.45
2023-05-24T02:09:38.538Z,234.90
2023-05-24T02:12:07.768Z,237.88
2023-05-24T02:14:37.989Z,238.18
2023-05-24T02:17:06.116Z,233.15
2023-05-24T02:19:34.745Z,237.68
2023-05-24T02:22:01.886Z,236.10
2023-05-24T02:24:30.457Z,236.40
2023-05-24T02:26:57.518Z,234.10
2023-05-24T02:29:25.469Z,233.48
2023-05-24T02:31:56.426Z,234.98
2023-05-24T02:34:24.802Z,238.20
2023-05-24T02:36:54.352Z,235.43
2023-05-24T02:39:21.589Z,236.60
2023-05-24T02:41:48.884Z,238.50
2023-05-24T02:44:16.225Z,234.40
2023-05-24T02:46:43.382Z,232.43
2023-05-24T02:49:10.566Z,234.30
2023-05-24T02:51:37.833Z,234.77
2023-05-24T02:54:05.020Z,236.32
2023-05-24T02:56:32.156Z,236.52
2023-05-24T02:58:59.219Z,235.85
2023-05-24T03:01:26.583Z,234.98
2023-05-24T03:03:55.418Z,234.85
2023-05-24T03:06:22.602Z,234.68
2023-05-24T03:08:49.914Z,235.02
2023-05-24T03:11:19.234Z,233.68
2023-05-24T03:13:46.268Z,229.75
2023-05-24T03:16:14.893Z,236.70
2023-05-24T03:18:41.948Z,232.18
2023-05-24T03:21:09.072Z,230.93
2023-05-24T03:23:36.458Z,238.63
2023-05-24T03:26:04.246Z,232.13
2023-05-24T03:28:31.282Z,234.05
2023-05-24T03:30:58.413Z,232.80
2023-05-24T03:33:25.545Z,230.50
2023-05-24T03:35:52.629Z,252.88
2023-05-24T03:38:19.736Z,238.73
2023-05-24T03:40:47.973Z,231.23
2023-05-24T03:43:18.729Z,236.23
2023-05-24T03:45:50.207Z,242.05
2023-05-24T03:48:17.735Z,237.40
2023-05-24T03:50:44.972Z,231.95
2023-05-24T03:53:12.111Z,236.98
2023-05-24T03:55:39.228Z,231.02
2023-05-24T03:58:06.411Z,231.57
2023-05-24T04:00:33.515Z,236.75
2023-05-24T04:03:02.058Z,232.50
2023-05-24T04:05:30.081Z,229.77
2023-05-24T04:07:57.401Z,233.88
2023-05-24T04:10:24.562Z,233.18
2023-05-24T04:12:51.874Z,233.45
2023-05-24T04:15:18.906Z,234.50
2023-05-24T04:17:46.898Z,226.35
2023-05-24T04:20:14.390Z,234.60
2023-05-24T04:22:41.461Z,238.98
2023-05-24T04:25:10.042Z,232.50
2023-05-24T04:27:37.399Z,235.75
2023-05-24T04:30:05.661Z,232.15
2023-05-24T04:32:32.854Z,236.38
2023-05-24T04:35:02.654Z,233.82
2023-05-24T04:37:31.774Z,230.70
2023-05-24T04:39:58.878Z,235.07
2023-05-24T04:42:27.322Z,236.75
2023-05-24T04:44:54.440Z,232.10
2023-05-24T04:47:21.517Z,235.32
2023-05-24T04:49:48.773Z,242.05
2023-05-24T04:52:16.254Z,239.10
2023-05-24T04:54:43.358Z,229.35
2023-05-24T04:57:10.476Z,234.82
2023-05-24T04:59:37.538Z,240.95
2023-05-24T05:02:04.850Z,240.05
2023-05-24T05:04:31.949Z,240.77
2023-05-24T05:06:59.011Z,232.93
2023-05-24T05:09:26.206Z,232.40
2023-05-24T05:11:53.284Z,235.85
2023-05-24T05:14:20.518Z,235.52
2023-05-24T05:16:47.611Z,234.57
2023-05-24T05:19:14.809Z,235.93
2023-05-24T05:21:42.106Z,235.07
2023-05-24T05:24:09.630Z,227.48
2023-05-24T05:26:36.781Z,236.70
2023-05-24T05:29:04.459Z,233.18
2023-05-24T05:31:31.506Z,238.68
2023-05-24T05:33:58.622Z,237.15
2023-05-24T05:36:25.749Z,228.75
2023-05-24T05:38:52.981Z,234.80
2023-05-24T05:41:20.033Z,231.95
2023-05-24T05:43:47.096Z,243.80
2023-05-24T05:46:15.665Z,244.15
2023-05-24T05:48:44.302Z,232.20
2023-05-24T05:51:13.644Z,231.98
2023-05-24T05:53:40.655Z,246.35
2023-05-24T05:56:07.921Z,242.15
2023-05-24T05:58:35.027Z,234.35
2023-05-24T06:01:01.997Z,234.63
2023-05-24T06:03:29.222Z,237.25
2023-05-24T06:05:56.345Z,245.55
2023-05-24T06:08:23.445Z,235.30
2023-05-24T06:10:52.823Z,236.00
2023-05-24T06:13:20.225Z,236.38
2023-05-24T06:15:47.561Z,240.38
2023-05-24T06:18:15.460Z,240.00
2023-05-24T06:20:42.811Z,234.75
2023-05-24T06:23:10.180Z,241.57
2023-05-24T06:25:38.736Z,246.95
2023-05-24T06:28:05.945Z,241.48
2023-05-24T06:30:33.804Z,232.63
2023-05-24T06:33:01.467Z,245.15
2023-05-24T06:35:28.647Z,240.93
2023-05-24T06:37:57.527Z,242.73
2023-05-24T06:40:24.710Z,230.48
2023-05-24T06:42:51.789Z,239.07
2023-05-24T06:45:18.888Z,237.30
2023-05-24T06:47:46.521Z,238.07
2023-05-24T06:50:13.711Z,233.80
2023-05-24T06:52:41.388Z,238.38
2023-05-24T06:55:08.773Z,242.50
2023-05-24T06:57:35.877Z,234.52
2023-05-24T07:00:05.248Z,230.60
2023-05-24T07:02:32.357Z,233.10
2023-05-24T07:04:59.475Z,231.10
2023-05-24T07:07:26.796Z,228.02
2023-05-24T07:09:53.903Z,234.73
2023-05-24T07:12:21.092Z,231.15
2023-05-24T07:14:48.201Z,228.57
2023-05-24T07:17:15.318Z,234.43
2023-05-24T07:19:42.561Z,231.65
2023-05-24T07:22:09.697Z,236.95
2023-05-24T07:24:36.768Z,227.55
2023-05-24T07:27:04.956Z,260.55
2023-05-24T07:29:32.279Z,226.82
2023-05-24T07:31:59.379Z,227.40
2023-05-24T07:34:29.962Z,239.68
2023-05-24T07:36:58.911Z,176.85
2023-05-24T07:39:27.317Z,144.93
2023-05-24T07:41:55.000Z,151.00
2023-05-24T07:44:22.376Z,133.98
2023-05-24T07:46:49.446Z,127.20
2023-05-24T07:49:16.686Z,117.80
2023-05-24T07:51:43.914Z,119.72
2023-05-24T07:54:10.957Z,121.82
2023-05-24T07:56:37.996Z,120.93
2023-05-24T07:59:05.067Z,123.60
2023-05-24T08:01:34.457Z,119.20
2023-05-24T08:04:04.204Z,116.65
2023-05-24T08:06:35.003Z,137.23
2023-05-24T08:09:04.549Z,113.90
2023-05-24T08:11:31.610Z,122.60
2023-05-24T08:13:58.702Z,126.55
2023-05-24T08:16:26.116Z,118.78
2023-05-24T08:18:55.131Z,125.75
2023-05-24T08:21:22.652Z,121.47
2023-05-24T08:23:49.702Z,109.95
2023-05-24T08:26:19.201Z,189.75
2023-05-24T08:28:46.481Z,183.32
2023-05-24T08:31:13.632Z,189.75
2023-05-24T08:33:41.488Z,196.73
2023-05-24T08:36:08.732Z,176.48
2023-05-24T08:38:36.198Z,188.38
2023-05-24T08:41:09.342Z,182.90
2023-05-24T08:43:38.225Z,197.02
2023-05-24T08:46:06.110Z,184.65
2023-05-24T08:48:35.201Z,173.55
2023-05-24T08:51:04.011Z,177.02
2023-05-24T08:53:32.610Z,177.25
2023-05-24T08:55:59.895Z,187.90
2023-05-24T08:58:27.394Z,186.52
2023-05-24T09:00:54.413Z,178.93
2023-05-24T09:03:22.812Z,187.43
2023-05-24T09:05:50.628Z,190.57
2023-05-24T09:08:18.955Z,192.07
2023-05-24T09:10:55.020Z,192.88
2023-05-24T09:13:26.988Z,196.60
2023-05-24T09:15:54.138Z,191.35
2023-05-24T09:18:21.375Z,196.25
2023-05-24T09:20:48.513Z,195.20
2023-05-24T09:23:16.266Z,203.38
2023-05-24T09:25:48.240Z,194.60
2023-05-24T09:28:18.217Z,197.95
2023-05-24T09:30:47.172Z,199.55
2023-05-24T09:33:14.361Z,195.52
2023-05-24T09:35:46.351Z,196.65
2023-05-24T09:38:18.821Z,198.82
2023-05-24T09:40:46.919Z,195.52
2023-05-24T09:43:14.098Z,191.27
2023-05-24T09:45:49.168Z,204.30
2023-05-24T09:48:17.627Z,192.80
2023-05-24T09:50:47.899Z,185.57
2023-05-24T09:53:18.867Z,181.23
2023-05-24T09:55:46.371Z,191.75
2023-05-24T09:58:13.941Z,172.18
2023-05-24T10:00:42.694Z,180.82
2023-05-24T10:03:12.940Z,169.05
2023-05-24T10:05:45.114Z,178.55
2023-05-24T10:08:14.486Z,182.65
2023-05-24T10:10:42.798Z,187.35
2023-05-24T10:13:11.624Z,179.82
2023-05-24T10:15:39.043Z,210.45
2023-05-24T10:18:10.565Z,209.80
2023-05-24T10:20:41.476Z,244.40
2023-05-24T10:23:11.054Z,209.23
2023-05-24T10:25:44.811Z,182.88
2023-05-24T10:28:15.243Z,188.02
2023-05-24T10:30:51.174Z,180.13
2023-05-24T10:33:19.494Z,191.23
2023-05-24T10:35:46.529Z,185.80
2023-05-24T10:38:13.682Z,183.32
2023-05-24T10:40:42.963Z,172.82
2023-05-24T10:43:10.516Z,169.80
2023-05-24T10:45:41.994Z,171.25
2023-05-24T10:48:15.677Z,173.07
2023-05-24T10:50:43.933Z,168.93
2023-05-24T10:53:12.802Z,167.40
2023-05-24T10:55:58.653Z,167.70
2023-05-24T10:58:35.394Z,170.80
2023-05-24T11:01:03.079Z,173.13
2023-05-24T11:03:33.885Z,157.98
2023-05-24T11:06:01.321Z,154.40
2023-05-24T11:08:35.334Z,151.85
2023-05-24T11:11:26.119Z,144.57
2023-05-24T11:14:00.476Z,145.18
2023-05-24T11:16:37.534Z,146.38
2023-05-24T11:19:36.437Z,132.45
2023-05-24T11:22:07.832Z,135.68
2023-05-24T11:24:36.400Z,130.70
2023-05-24T11:27:04.452Z,129.98
2023-05-24T11:29:31.938Z,121.68
2023-05-24T11:32:07.864Z,108.65
2023-05-24T11:34:35.221Z,111.32
2023-05-24T11:37:05.544Z,126.95
2023-05-24T11:39:34.549Z,109.18
2023-05-24T11:42:04.852Z,107.28
2023-05-24T11:44:33.083Z,113.10
2023-05-24T11:47:06.278Z,95.68
2023-05-24T11:49:33.475Z,95.13
2023-05-24T11:52:02.932Z,104.03
2023-05-24T11:54:33.401Z,94.07
2023-05-24T11:57:02.064Z,103.00
2023-05-24T11:59:30.218Z,83.55
2023-05-24T12:02:02.912Z,105.80
2023-05-24T12:04:32.267Z,81.40
2023-05-24T12:06:59.697Z,81.13
2023-05-24T12:09:27.770Z,87.20
2023-05-24T12:11:55.686Z,72.68
2023-05-24T12:14:31.484Z,65.65
2023-05-24T12:16:59.899Z,49.90
2023-05-24T12:19:36.425Z,55.67
2023-05-24T12:22:07.185Z,164.60
2023-05-24T12:24:35.218Z,42.45
2023-05-24T12:27:08.105Z,42.53
2023-05-24T12:29:41.953Z,34.60
2023-05-24T12:32:15.164Z,36.85
2023-05-24T12:34:44.714Z,41.97
2023-05-24T12:37:13.192Z,30.63
2023-05-24T12:39:43.016Z,35.38
2023-05-24T12:42:13.099Z,34.40
2023-05-24T12:44:40.490Z,40.40
2023-05-24T12:47:09.122Z,36.38
2023-05-24T12:49:36.843Z,28.17
2023-05-24T12:52:04.800Z,51.70
2023-05-24T12:54:32.310Z,43.05
2023-05-24T12:57:00.550Z,33.58
2023-05-24T12:59:29.050Z,30.80
2023-05-24T13:01:56.666Z,32.17
2023-05-24T13:04:26.516Z,42.17
2023-05-24T13:06:53.970Z,27.92
2023-05-24T13:09:25.766Z,34.40
2023-05-24T13:11:54.280Z,31.90
2023-05-24T13:14:21.743Z,42.45
2023-05-24T13:16:49.091Z,34.45
2023-05-24T13:19:17.190Z,32.90
2023-05-24T13:21:44.374Z,39.78
2023-05-24T13:24:16.125Z,42.63
2023-05-24T13:26:43.641Z,25.67
2023-05-24T13:31:41.441Z,30.75
2023-05-24T13:34:10.924Z,30.00
2023-05-24T13:36:38.458Z,32.72
2023-05-24T13:39:15.541Z,26.35
2023-05-24T13:41:44.818Z,29.70
2023-05-24T13:44:13.885Z,22.42
2023-05-24T13:46:41.836Z,28.60
2023-05-24T13:49:10.922Z,25.80
2023-05-24T13:51:39.118Z,33.13
2023-05-24T13:54:07.488Z,32.67
2023-05-24T13:56:35.837Z,41.97
2023-05-24T13:59:04.618Z,40.15
2023-05-24T14:01:33.588Z,53.80
2023-05-24T14:04:02.259Z,54.33
2023-05-24T14:06:29.809Z,65.38
2023-05-24T14:08:57.031Z,111.97
2023-05-24T14:11:34.025Z,86.70
2023-05-24T14:16:32.518Z,79.68
2023-05-24T14:18:59.655Z,86.68
2023-05-24T14:21:27.252Z,81.13
2023-05-24T14:23:54.682Z,92.72
2023-05-24T14:26:24.546Z,91.97
2023-05-24T14:28:54.460Z,82.38
2023-05-24T14:31:23.585Z,103.90
2023-05-24T14:33:50.811Z,98.82
2023-05-24T14:36:17.911Z,89.68
2023-05-24T14:38:44.966Z,95.72
2023-05-24T14:41:12.026Z,89.95
2023-05-24T14:43:40.396Z,80.82
2023-05-24T14:46:07.518Z,81.38
2023-05-24T14:48:35.361Z,71.40
2023-05-24T14:51:02.382Z,81.78
2023-05-24T14:53:29.400Z,71.93
2023-05-24T14:55:56.424Z,76.72
2023-05-24T14:58:23.524Z,79.63
2023-05-24T15:00:51.134Z,100.72
2023-05-24T15:03:18.661Z,90.07
2023-05-24T15:05:46.424Z,104.03
2023-05-24T15:08:13.609Z,108.95
2023-05-24T15:10:40.923Z,103.60
2023-05-24T15:13:08.197Z,114.40
2023-05-24T15:15:35.339Z,120.32
2023-05-24T15:18:02.844Z,106.50
2023-05-24T15:20:29.946Z,132.80
2023-05-24T15:22:56.949Z,146.98
2023-05-24T15:25:24.019Z,120.88
2023-05-24T15:27:51.277Z,117.82
2023-05-24T15:30:24.050Z,126.35
2023-05-24T15:32:51.410Z,169.38
2023-05-24T15:35:18.484Z,149.75
2023-05-24T15:37:46.101Z,145.38
2023-05-24T15:40:13.642Z,149.10
2023-05-24T15:42:40.725Z,164.73
2023-05-24T15:45:08.657Z,172.77
2023-05-24T15:47:39.634Z,158.88
2023-05-24T15:50:08.815Z,164.48
2023-05-24T15:52:36.346Z,176.07
2023-05-24T15:55:03.804Z,172.43
2023-05-24T15:57:31.617Z,178.10
2023-05-24T15:59:58.662Z,165.93
2023-05-24T16:02:25.982Z,166.60
2023-05-24T16:04:53.224Z,46.17
2023-05-24T16:07:20.333Z,33.03
2023-05-24T16:09:47.422Z,49.65
2023-05-24T16:12:14.470Z,155.48
2023-05-24T16:14:41.420Z,229.60
2023-05-24T16:17:08.581Z,198.52
2023-05-24T16:19:35.833Z,183.23
2023-05-24T16:22:02.875Z,57.38
2023-05-24T16:24:29.933Z,46.70
2023-05-24T16:27:01.649Z,71.45
2023-05-24T16:29:29.012Z,80.10
2023-05-24T16:31:56.128Z,44.97
2023-05-24T16:34:24.717Z,253.48
2023-05-24T16:36:52.174Z,230.77
2023-05-24T16:39:19.210Z,190.75
2023-05-24T16:41:46.359Z,40.63
2023-05-24T16:44:17.811Z,67.15
2023-05-24T16:46:46.395Z,53.40
2023-05-24T16:49:13.578Z,59.58
2023-05-24T16:51:40.636Z,55.03
2023-05-24T16:54:09.005Z,102.53
2023-05-24T16:56:37.799Z,82.50
2023-05-24T16:59:05.124Z,199.30
2023-05-24T17:01:32.312Z,84.93
2023-05-24T17:03:59.552Z,49.95
2023-05-24T17:06:27.954Z,55.55
2023-05-24T17:08:54.946Z,64.45
2023-05-24T17:11:23.123Z,64.60
2023-05-24T17:13:51.498Z,90.28
2023-05-24T17:16:18.857Z,75.72
2023-05-24T17:18:46.023Z,88.45
2023-05-24T17:21:13.054Z,99.63
2023-05-24T17:23:40.200Z,94.40
2023-05-24T17:26:10.080Z,108.30
2023-05-24T17:28:37.289Z,63.72
2023-05-24T17:31:04.594Z,122.43
2023-05-24T17:33:32.334Z,121.45
2023-05-24T17:36:06.375Z,128.18
2023-05-24T17:38:33.505Z,99.82
2023-05-24T17:41:00.729Z,106.97
2023-05-24T17:43:34.529Z,122.65
2023-05-24T17:46:03.772Z,128.15
2023-05-24T17:48:35.924Z,76.68
2023-05-24T17:51:08.557Z,107.72
2023-05-24T17:53:37.455Z,149.45
2023-05-24T17:56:06.147Z,110.57
2023-05-24T17:58:36.349Z,249.85
2023-05-24T18:01:11.885Z,122.38
2023-05-24T18:03:40.841Z,112.13
2023-05-24T18:06:08.969Z,110.28
2023-05-24T18:08:40.971Z,79.30
2023-05-24T18:11:08.463Z,96.55
2023-05-24T18:13:38.391Z,182.52
2023-05-24T18:16:06.993Z,105.20
2023-05-24T18:18:34.421Z,234.00
2023-05-24T18:21:01.575Z,122.00
2023-05-24T18:23:28.749Z,109.22
2023-05-24T18:26:01.042Z,139.23
2023-05-24T18:28:29.764Z,145.77
2023-05-24T18:30:56.789Z,149.32
2023-05-24T18:33:24.322Z,137.38
2023-05-24T18:35:51.508Z,168.68
2023-05-24T18:38:18.555Z,146.18
2023-05-24T18:40:45.764Z,150.15
2023-05-24T18:43:12.898Z,265.63
2023-05-24T18:45:39.902Z,155.25
2023-05-24T18:48:08.037Z,146.60
2023-05-24T18:50:35.205Z,136.07
2023-05-24T18:53:02.341Z,126.95
2023-05-24T18:55:29.408Z,71.00
2023-05-24T18:57:56.626Z,105.13
2023-05-24T19:00:24.571Z,60.70
2023-05-24T19:02:51.837Z,65.03
2023-05-24T19:05:20.156Z,231.43
2023-05-24T19:07:47.265Z,135.18
2023-05-24T19:10:14.295Z,153.32
2023-05-24T19:12:41.360Z,165.35
2023-05-24T19:15:08.999Z,140.98
2023-05-24T19:17:36.192Z,172.63
2023-05-24T19:20:03.876Z,166.48
2023-05-24T19:22:31.051Z,158.48
2023-05-24T19:24:58.163Z,248.00
2023-05-24T19:27:25.182Z,236.82
2023-05-24T19:29:52.441Z,258.38
2023-05-24T19:32:20.546Z,237.05
2023-05-24T19:34:47.701Z,239.70
2023-05-24T19:37:15.909Z,261.05
2023-05-24T19:39:43.006Z,240.73
2023-05-24T19:42:11.969Z,185.95
2023-05-24T19:44:39.028Z,172.98
2023-05-24T19:47:06.345Z,238.88
2023-05-24T19:49:33.778Z,177.57
2023-05-24T19:52:00.777Z,143.32
2023-05-24T19:54:28.664Z,145.57
2023-05-24T19:56:57.716Z,113.70
2023-05-24T19:59:24.753Z,170.20
2023-05-24T20:01:51.841Z,172.93
2023-05-24T20:04:19.245Z,152.00
2023-05-24T20:06:46.398Z,129.82
2023-05-24T20:09:18.550Z,113.43
2023-05-24T20:11:46.465Z,168.35
2023-05-24T20:14:13.672Z,173.75
2023-05-24T20:16:41.104Z,141.90
2023-05-24T20:19:08.367Z,215.30
2023-05-24T20:21:36.679Z,191.40
2023-05-24T20:24:03.810Z,122.82
2023-05-24T20:26:33.114Z,175.77
2023-05-24T20:29:00.167Z,184.18
2023-05-24T20:31:27.717Z,190.93
2023-05-24T20:33:54.828Z,164.25
2023-05-24T20:36:22.200Z,200.85
2023-05-24T20:38:49.366Z,162.57
2023-05-24T20:41:17.950Z,191.35
2023-05-24T20:43:44.996Z,222.57
2023-05-24T20:46:13.948Z,197.15
2023-05-24T20:48:42.148Z,205.02
2023-05-24T20:51:09.788Z,220.45
2023-05-24T20:53:37.745Z,189.80
2023-05-24T20:56:04.829Z,189.48
2023-05-24T20:58:31.821Z,193.07
2023-05-24T21:00:59.230Z,194.90
2023-05-24T21:03:26.872Z,209.18
2023-05-24T21:05:53.986Z,198.02
2023-05-24T21:08:21.117Z,196.20
2023-05-24T21:10:48.142Z,197.13
2023-05-24T21:13:15.210Z,222.85
2023-05-24T21:15:44.720Z,200.50
2023-05-24T21:18:12.685Z,204.50
2023-05-24T21:20:39.809Z,200.60
2023-05-24T21:23:06.846Z,184.68
2023-05-24T21:25:33.833Z,201.18
2023-05-24T21:28:00.880Z,190.50
2023-05-24T21:30:29.795Z,190.90
2023-05-24T21:32:56.982Z,201.35
2023-05-24T21:35:24.009Z,204.43
2023-05-24T21:37:52.517Z,204.95
2023-05-24T21:40:19.679Z,200.02
2023-05-24T21:42:46.765Z,205.60
2023-05-24T21:45:13.883Z,203.25
2023-05-24T21:47:41.982Z,206.65
2023-05-24T21:50:09.533Z,210.30
2023-05-24T21:52:36.569Z,212.05
2023-05-24T21:55:03.799Z,215.65
2023-05-24T21:57:30.849Z,203.07
2023-05-24T21:59:58.347Z,211.45
2023-05-24T22:02:25.402Z,211.95
2023-05-24T22:04:52.447Z,203.57
2023-05-24T22:07:19.522Z,204.43
2023-05-24T22:09:46.994Z,214.35
2023-05-24T22:12:14.151Z,241.00
2023-05-24T22:14:41.591Z,242.50
2023-05-24T22:17:08.684Z,202.38
2023-05-24T22:19:40.033Z,211.43
2023-05-24T22:22:08.846Z,204.65
2023-05-24T22:24:36.245Z,225.02
2023-05-24T22:27:03.922Z,212.80
2023-05-24T22:29:31.221Z,205.05
2023-05-24T22:31:58.331Z,215.10
2023-05-24T22:34:29.394Z,205.25
2023-05-24T22:36:57.669Z,195.48
2023-05-24T22:39:25.034Z,194.90
2023-05-24T22:41:52.824Z,204.65
2023-05-24T22:44:20.265Z,194.25
2023-05-24T22:46:53.769Z,213.55
2023-05-24T22:49:21.266Z,206.18
2023-05-24T22:51:50.411Z,199.23
2023-05-24T22:54:18.037Z,229.73
2023-05-24T22:56:46.275Z,202.75
2023-05-24T22:59:13.334Z,196.77
2023-05-24T23:01:40.489Z,206.07
2023-05-24T23:04:20.547Z,193.07
2023-05-24T23:06:52.331Z,195.77
2023-05-24T23:09:29.036Z,205.02
2023-05-24T23:11:58.443Z,195.90
2023-05-24T23:14:25.910Z,225.40
2023-05-24T23:16:52.995Z,203.77
2023-05-24T23:19:22.125Z,189.43
2023-05-24T23:21:52.317Z,218.98
2023-05-24T23:24:19.475Z,218.07
2023-05-24T23:26:46.559Z,215.35
2023-05-24T23:29:13.721Z,204.90
2023-05-24T23:31:41.008Z,211.43
2023-05-24T23:34:08.092Z,194.40
2023-05-24T23:36:35.230Z,211.32
2023-05-24T23:39:02.238Z,232.38
2023-05-24T23:41:29.183Z,221.85
2023-05-24T23:43:56.160Z,217.23
2023-05-24T23:46:23.419Z,211.75
2023-05-24T23:48:50.486Z,211.30
2023-05-24T23:51:19.535Z,220.25
2023-05-24T23:53:46.601Z,221.48
2023-05-24T23:56:13.626Z,213.18
2023-05-24T23:58:42.029Z,210.55
